Time;durP1;ratioP1;P1;durP2;ratioP2;P2;SDS_P1;SDS_P2;PMS_P1;PMS_P2;Temp;Humidity;BMP_temperature;BMP_pressure;BME280_temperature;BME280_humidity;BME280_pressure;Samples;Min_cycle;Max_cycle;Signal;HPM_P1;HPM_P2
2021/07/10 00:01:51;;;;;;;4.63;3.30;;;;;;;;;;4443847;28;20036;-60
2021/07/10 00:04:04;;;;;;;5.10;3.53;;;;;;;;;;4503506;28;20458;-60
2021/07/10 00:06:14;;;;;;;5.28;3.35;;;;;;;;;;4441682;28;20032;-60
2021/07/10 00:08:25;;;;;;;3.67;3.13;;;;;;;;;;4499072;28;20033;-60
2021/07/10 00:10:36;;;;;;;5.10;3.57;;;;;;;;;;4498774;28;20540;-60
2021/07/10 00:12:46;;;;;;;5.57;3.72;;;;;;;;;;4447155;28;20044;-60
2021/07/10 00:14:57;;;;;;;3.67;3.10;;;;;;;;;;4505225;28;20489;-60
2021/07/10 00:17:07;;;;;;;4.37;3.40;;;;;;;;;;4500634;28;20301;-60
2021/07/10 00:19:18;;;;;;;5.57;3.40;;;;;;;;;;4482538;28;20871;-60
2021/07/10 00:21:28;;;;;;;4.60;3.40;;;;;;;;;;4439542;28;20094;-60
2021/07/10 00:23:39;;;;;;;4.67;3.30;;;;;;;;;;4433086;28;20443;-60
2021/07/10 00:25:49;;;;;;;5.07;3.50;;;;;;;;;;4499495;28;20242;-60
2021/07/10 00:28:00;;;;;;;4.80;3.80;;;;;;;;;;4437273;28;20035;-60
2021/07/10 00:30:11;;;;;;;6.13;3.80;;;;;;;;;;4501154;28;20049;-59
2021/07/10 00:32:21;;;;;;;5.97;3.63;;;;;;;;;;4486755;28;20038;-60
2021/07/10 00:34:32;;;;;;;4.27;3.30;;;;;;;;;;4440570;28;20038;-60
2021/07/10 00:36:42;;;;;;;4.70;3.37;;;;;;;;;;4436575;28;20039;-60
2021/07/10 00:38:53;;;;;;;3.80;3.20;;;;;;;;;;4446649;28;20047;-60
2021/07/10 00:41:03;;;;;;;5.05;3.60;;;;;;;;;;4501239;28;20034;-60
2021/07/10 00:43:14;;;;;;;5.50;3.80;;;;;;;;;;4440807;28;20512;-60
2021/07/10 00:45:25;;;;;;;6.40;3.63;;;;;;;;;;4440227;28;20123;-60
2021/07/10 00:47:36;;;;;;;5.03;3.40;;;;;;;;;;4498570;28;20091;-60
2021/07/10 00:49:46;;;;;;;5.38;3.90;;;;;;;;;;4497261;28;20033;-60
2021/07/10 00:51:56;;;;;;;4.00;3.40;;;;;;;;;;4434001;28;20040;-60
2021/07/10 00:54:07;;;;;;;5.70;3.80;;;;;;;;;;4502083;28;20581;-60
2021/07/10 00:56:17;;;;;;;4.00;3.23;;;;;;;;;;4439440;28;20071;-60
2021/07/10 00:58:28;;;;;;;3.73;3.20;;;;;;;;;;4443835;28;20123;-60
2021/07/10 01:00:40;;;;;;;4.78;3.70;;;;;;;;;;4501058;28;20110;-60
2021/07/10 01:02:52;;;;;;;3.80;3.05;;;;;;;;;;4436087;28;20151;-60
2021/07/10 01:05:06;;;;;;;6.88;3.40;;;;;;;;;;4496000;28;20809;-60
2021/07/10 01:07:17;;;;;;;4.60;3.70;;;;;;;;;;4438580;28;20042;-60
2021/07/10 01:09:27;;;;;;;5.30;3.70;;;;;;;;;;4501154;28;20040;-60
2021/07/10 01:11:37;;;;;;;4.40;3.57;;;;;;;;;;4439929;28;20044;-60
2021/07/10 01:13:48;;;;;;;5.00;3.43;;;;;;;;;;4497964;28;20036;-60
2021/07/10 01:15:59;;;;;;;6.07;3.57;;;;;;;;;;4474627;28;20038;-60
2021/07/10 01:18:09;;;;;;;4.70;3.67;;;;;;;;;;4503635;28;20041;-60
2021/07/10 01:20:21;;;;;;;4.40;3.53;;;;;;;;;;4499713;28;20040;-60
2021/07/10 01:22:34;;;;;;;4.13;3.45;;;;;;;;;;4442265;28;20034;-60
2021/07/10 01:24:44;;;;;;;3.80;3.20;;;;;;;;;;4498185;28;20982;-60
2021/07/10 01:26:55;;;;;;;6.13;3.43;;;;;;;;;;4503485;28;20090;-60
2021/07/10 01:29:05;;;;;;;4.50;3.60;;;;;;;;;;4436050;28;20047;-60
2021/07/10 01:31:16;;;;;;;4.07;3.40;;;;;;;;;;4435466;28;20636;-60
2021/07/10 01:33:27;;;;;;;4.30;3.10;;;;;;;;;;4499056;28;20030;-60
2021/07/10 01:35:38;;;;;;;5.80;3.60;;;;;;;;;;4499879;28;20482;-60
2021/07/10 01:37:49;;;;;;;4.93;3.78;;;;;;;;;;4440233;28;20087;-60
2021/07/10 01:39:59;;;;;;;5.35;3.47;;;;;;;;;;4498944;28;20152;-60
2021/07/10 01:42:10;;;;;;;4.20;3.50;;;;;;;;;;4437942;28;20047;-60
2021/07/10 01:44:21;;;;;;;4.28;3.20;;;;;;;;;;4441379;28;20093;-60
2021/07/10 01:46:31;;;;;;;4.82;3.15;;;;;;;;;;4501438;28;20124;-59
2021/07/10 01:48:42;;;;;;;4.63;3.80;;;;;;;;;;4438498;28;20677;-60
2021/07/10 01:50:52;;;;;;;3.57;3.07;;;;;;;;;;4437759;28;20039;-60
2021/07/10 01:53:03;;;;;;;3.90;3.20;;;;;;;;;;4438577;28;20046;-60
2021/07/10 01:55:15;;;;;;;3.70;3.30;;;;;;;;;;4439610;28;20047;-60
2021/07/10 01:57:25;;;;;;;4.20;3.45;;;;;;;;;;4489630;28;20042;-60
2021/07/10 01:59:36;;;;;;;4.03;3.33;;;;;;;;;;4447302;28;20578;-60
2021/07/10 02:01:48;;;;;;;3.95;3.08;;;;;;;;;;4436278;28;20945;-60
2021/07/10 02:04:03;;;;;;;4.53;3.00;;;;;;;;;;4500063;28;20131;-60
2021/07/10 02:06:13;;;;;;;3.08;2.78;;;;;;;;;;4436964;28;20051;-60
2021/07/10 02:08:23;;;;;;;3.77;3.37;;;;;;;;;;4440255;28;20039;-60
2021/07/10 02:10:34;;;;;;;2.90;2.43;;;;;;;;;;4440799;28;29198;-60
2021/07/10 02:12:49;;;;;;;3.23;2.53;;;;;;;;;;4442268;28;20047;-60
2021/07/10 02:15:00;;;;;;;2.80;2.30;;;;;;;;;;4439373;28;20048;-60
2021/07/10 02:17:10;;;;;;;2.70;2.40;;;;;;;;;;4440773;28;20039;-60
2021/07/10 02:19:21;;;;;;;3.50;2.67;;;;;;;;;;4436248;28;20040;-60
2021/07/10 02:21:31;;;;;;;4.10;2.50;;;;;;;;;;4439542;28;20122;-60
2021/07/10 02:23:41;;;;;;;2.97;2.50;;;;;;;;;;4440830;28;20040;-60
2021/07/10 02:25:52;;;;;;;2.97;2.67;;;;;;;;;;4441331;28;20467;-60
2021/07/10 02:28:03;;;;;;;3.07;2.43;;;;;;;;;;4441956;28;20036;-60
2021/07/10 02:30:20;;;;;;;3.40;2.85;;;;;;;;;;4434361;28;20035;-60
2021/07/10 02:32:31;;;;;;;3.42;2.78;;;;;;;;;;4502522;28;20060;-60
2021/07/10 02:34:41;;;;;;;4.10;3.00;;;;;;;;;;4485451;28;20326;-59
2021/07/10 02:36:52;;;;;;;2.63;2.43;;;;;;;;;;4437757;28;20039;-61
2021/07/10 02:39:04;;;;;;;3.50;2.70;;;;;;;;;;4439568;28;20097;-60
2021/07/10 02:41:15;;;;;;;3.35;2.53;;;;;;;;;;4437851;28;20043;-60
2021/07/10 02:43:25;;;;;;;3.10;2.60;;;;;;;;;;4499808;28;20860;-60
2021/07/10 02:45:36;;;;;;;3.40;2.50;;;;;;;;;;4503201;28;20517;-60
2021/07/10 02:47:47;;;;;;;3.85;2.38;;;;;;;;;;4439762;28;20052;-60
2021/07/10 02:49:58;;;;;;;5.27;2.50;;;;;;;;;;4443014;28;20047;-60
2021/07/10 02:52:08;;;;;;;3.67;2.83;;;;;;;;;;4440686;28;20177;-60
2021/07/10 02:54:18;;;;;;;4.03;3.30;;;;;;;;;;4443611;28;20035;-60
2021/07/10 02:56:29;;;;;;;3.00;2.30;;;;;;;;;;4441897;28;20047;-59
2021/07/10 02:58:39;;;;;;;3.40;2.77;;;;;;;;;;4437556;28;20035;-60
2021/07/10 03:00:50;;;;;;;3.57;2.67;;;;;;;;;;4499955;28;20579;-60
2021/07/10 03:03:01;;;;;;;3.63;3.00;;;;;;;;;;4436281;28;20036;-59
2021/07/10 03:05:11;;;;;;;3.80;3.00;;;;;;;;;;4440413;28;20709;-60
2021/07/10 03:07:22;;;;;;;2.07;1.80;;;;;;;;;;4499801;28;20097;-59
2021/07/10 03:09:32;;;;;;;3.30;2.50;;;;;;;;;;4440773;28;20031;-60
2021/07/10 03:11:43;;;;;;;4.77;2.70;;;;;;;;;;4499607;28;20038;-60
2021/07/10 03:13:54;;;;;;;3.83;2.60;;;;;;;;;;4442230;28;20048;-60
2021/07/10 03:16:05;;;;;;;4.40;3.00;;;;;;;;;;4439656;28;20051;-59
2021/07/10 03:18:15;;;;;;;3.53;2.80;;;;;;;;;;4440453;28;20529;-60
2021/07/10 03:20:26;;;;;;;3.57;2.70;;;;;;;;;;4440111;28;20102;-59
2021/07/10 03:22:36;;;;;;;2.85;2.22;;;;;;;;;;4439307;28;20482;-60
2021/07/10 03:24:47;;;;;;;2.60;2.40;;;;;;;;;;4433612;28;20064;-60
2021/07/10 03:26:57;;;;;;;2.50;1.87;;;;;;;;;;4439840;28;20031;-59
2021/07/10 03:29:08;;;;;;;2.70;2.50;;;;;;;;;;4499402;28;20037;-60
2021/07/10 03:31:18;;;;;;;4.30;2.70;;;;;;;;;;4500755;28;20493;-60
2021/07/10 03:33:34;;;;;;;4.03;2.63;;;;;;;;;;4440540;28;20496;-60
2021/07/10 03:35:44;;;;;;;3.60;2.45;;;;;;;;;;4438490;28;20051;-59
2021/07/10 03:37:57;;;;;;;3.90;2.73;;;;;;;;;;4504160;28;20026;-60
2021/07/10 03:40:13;;;;;;;3.30;2.78;;;;;;;;;;4446824;28;20032;-60
2021/07/10 03:42:23;;;;;;;4.75;2.83;;;;;;;;;;4500969;28;20088;-60
2021/07/10 03:44:33;;;;;;;3.10;2.70;;;;;;;;;;4443593;28;20382;-60
2021/07/10 03:46:45;;;;;;;3.40;2.73;;;;;;;;;;4438843;28;20828;-60
2021/07/10 03:48:56;;;;;;;3.08;2.72;;;;;;;;;;4434958;28;20024;-59
2021/07/10 03:51:07;;;;;;;3.10;2.80;;;;;;;;;;4438322;28;20032;-59
2021/07/10 03:53:17;;;;;;;3.27;2.73;;;;;;;;;;4439978;28;20592;-60
2021/07/10 03:55:28;;;;;;;4.10;3.17;;;;;;;;;;4440023;28;20137;-60
2021/07/10 03:57:39;;;;;;;3.37;3.00;;;;;;;;;;4433536;28;20508;-60
2021/07/10 03:59:50;;;;;;;2.85;2.40;;;;;;;;;;4501311;28;20578;-60
2021/07/10 04:02:00;;;;;;;3.07;2.67;;;;;;;;;;4499325;28;20037;-59
2021/07/10 04:04:14;;;;;;;2.43;2.23;;;;;;;;;;4441294;28;20055;-59
2021/07/10 04:06:24;;;;;;;4.55;2.17;;;;;;;;;;4438489;28;20032;-60
2021/07/10 04:08:35;;;;;;;1.93;1.70;;;;;;;;;;4438967;28;20035;-60
2021/07/10 04:10:45;;;;;;;2.83;1.67;;;;;;;;;;4498929;28;20029;-59
2021/07/10 04:12:56;;;;;;;2.93;2.33;;;;;;;;;;4439867;28;20475;-60
2021/07/10 04:15:07;;;;;;;3.43;2.83;;;;;;;;;;4441609;28;20040;-60
2021/07/10 04:17:18;;;;;;;3.35;2.50;;;;;;;;;;4435844;28;20051;-60
2021/07/10 04:19:28;;;;;;;3.90;3.10;;;;;;;;;;4437976;28;20487;-59
2021/07/10 04:21:38;;;;;;;3.30;2.93;;;;;;;;;;4438866;28;20031;-60
2021/07/10 04:23:49;;;;;;;4.27;3.20;;;;;;;;;;4438324;28;20522;-60
2021/07/10 04:25:59;;;;;;;3.23;2.83;;;;;;;;;;4496777;28;20125;-60
2021/07/10 04:28:10;;;;;;;3.30;2.27;;;;;;;;;;4436154;28;20048;-60
2021/07/10 04:30:21;;;;;;;2.23;1.90;;;;;;;;;;4436893;28;20032;-60
2021/07/10 04:32:31;;;;;;;2.03;1.77;;;;;;;;;;4441227;28;20080;-59
2021/07/10 04:34:42;;;;;;;2.63;2.10;;;;;;;;;;4440341;28;20090;-59
2021/07/10 04:36:52;;;;;;;2.50;2.23;;;;;;;;;;4498380;28;20079;-60
2021/07/10 04:39:03;;;;;;;2.40;1.90;;;;;;;;;;4438463;28;20036;-59
2021/07/10 04:41:13;;;;;;;4.43;2.40;;;;;;;;;;4442983;28;20039;-60
2021/07/10 04:43:23;;;;;;;3.87;2.30;;;;;;;;;;4438492;28;20032;-59
2021/07/10 04:45:34;;;;;;;3.93;2.80;;;;;;;;;;4500820;28;20464;-60
2021/07/10 04:47:44;;;;;;;3.90;3.10;;;;;;;;;;4503233;28;20084;-60
2021/07/10 04:49:55;;;;;;;5.93;3.37;;;;;;;;;;4441028;28;20732;-60
2021/07/10 04:52:06;;;;;;;4.83;3.13;;;;;;;;;;4514014;28;20029;-60
2021/07/10 04:54:16;;;;;;;4.55;3.47;;;;;;;;;;4496694;28;20064;-60
2021/07/10 04:56:27;;;;;;;4.23;3.27;;;;;;;;;;4437216;28;20050;-60
2021/07/10 04:58:38;;;;;;;4.00;3.23;;;;;;;;;;4442116;28;20520;-60
2021/07/10 05:00:49;;;;;;;4.35;2.92;;;;;;;;;;4503970;28;20689;-59
2021/07/10 05:03:00;;;;;;;6.32;2.72;;;;;;;;;;4496639;28;20191;-61
2021/07/10 05:05:11;;;;;;;4.23;2.70;;;;;;;;;;4498039;28;20521;-60
2021/07/10 05:07:22;;;;;;;;;;;;;;;;;;4439365;28;20043;-60
2021/07/10 05:09:32;;;;;;;4.83;2.63;;;;;;;;;;4443375;28;19924;-60
2021/07/10 05:11:43;;;;;;;3.13;2.70;;;;;;;;;;4497631;28;20516;-60
2021/07/10 05:13:53;;;;;;;4.53;3.17;;;;;;;;;;4436251;28;20098;-60
2021/07/10 05:16:04;;;;;;;5.47;3.30;;;;;;;;;;4500338;28;20088;-60
2021/07/10 05:18:14;;;;;;;4.10;3.10;;;;;;;;;;4497138;28;20061;-59
2021/07/10 05:20:25;;;;;;;4.90;2.97;;;;;;;;;;4440252;28;20126;-60
2021/07/10 05:22:36;;;;;;;6.20;3.30;;;;;;;;;;4502072;28;20767;-60
2021/07/10 05:24:46;;;;;;;6.93;3.73;;;;;;;;;;4437622;28;20507;-60
2021/07/10 05:26:57;;;;;;;5.13;3.77;;;;;;;;;;4442618;28;20044;-59
2021/07/10 05:29:07;;;;;;;4.60;3.47;;;;;;;;;;4442279;28;20284;-60
2021/07/10 05:31:18;;;;;;;5.03;3.77;;;;;;;;;;4500714;28;20441;-59
2021/07/10 05:33:28;;;;;;;4.97;3.90;;;;;;;;;;4443741;28;20573;-60
2021/07/10 05:35:39;;;;;;;4.60;3.70;;;;;;;;;;4446799;28;20081;-60
2021/07/10 05:37:50;;;;;;;6.33;3.93;;;;;;;;;;4439709;28;20048;-60
2021/07/10 05:40:00;;;;;;;5.97;4.10;;;;;;;;;;4484079;28;20912;-60
2021/07/10 05:42:11;;;;;;;4.80;3.70;;;;;;;;;;4440913;28;20035;-60
2021/07/10 05:44:22;;;;;;;5.93;4.13;;;;;;;;;;4441751;28;20798;-60
2021/07/10 05:46:32;;;;;;;5.07;3.73;;;;;;;;;;4501798;28;20052;-60
2021/07/10 05:48:43;;;;;;;4.87;3.80;;;;;;;;;;4439286;28;20098;-59
2021/07/10 05:50:53;;;;;;;4.63;3.60;;;;;;;;;;4441371;28;20039;-59
2021/07/10 05:53:04;;;;;;;5.93;4.40;;;;;;;;;;4500161;28;20030;-60
2021/07/10 05:55:14;;;;;;;7.80;4.00;;;;;;;;;;4444951;28;20098;-60
2021/07/10 05:57:25;;;;;;;5.83;4.20;;;;;;;;;;4501244;28;20493;-60
2021/07/10 05:59:35;;;;;;;5.23;4.00;;;;;;;;;;4438425;28;20468;-60
2021/07/10 06:01:46;;;;;;;5.27;4.07;;;;;;;;;;4437836;28;20027;-59
2021/07/10 06:03:56;;;;;;;5.47;4.07;;;;;;;;;;4500059;28;20049;-59
2021/07/10 06:06:06;;;;;;;7.87;4.30;;;;;;;;;;4441713;28;20032;-59
2021/07/10 06:08:17;;;;;;;6.33;4.17;;;;;;;;;;4504885;28;20706;-59
2021/07/10 06:10:27;;;;;;;5.77;3.93;;;;;;;;;;4440324;28;20032;-59
2021/07/10 06:12:39;;;;;;;6.13;4.40;;;;;;;;;;4441017;28;20059;-59
2021/07/10 06:14:49;;;;;;;;;;;;;;;;;;4449304;28;20060;-60
2021/07/10 06:17:00;;;;;;;5.35;4.25;;;;;;;;;;4517686;28;20395;-59
2021/07/10 06:19:10;;;;;;;5.00;4.20;;;;;;;;;;4504705;28;20395;-59
2021/07/10 06:21:21;;;;;;;5.17;4.23;;;;;;;;;;4504685;28;20047;-60
2021/07/10 06:23:31;;;;;;;6.27;4.23;;;;;;;;;;4439797;28;20472;-60
2021/07/10 06:25:42;;;;;;;6.40;4.20;;;;;;;;;;4439360;28;20036;-60
2021/07/10 06:27:52;;;;;;;6.00;4.43;;;;;;;;;;4442867;28;20785;-59
2021/07/10 06:30:07;;;;;;;6.17;4.93;;;;;;;;;;4438250;28;20122;-59
2021/07/10 06:32:18;;;;;;;8.27;4.60;;;;;;;;;;4440657;28;20123;-59
2021/07/10 06:34:29;;;;;;;6.55;4.90;;;;;;;;;;4499312;28;20030;-59
2021/07/10 06:36:40;;;;;;;7.13;5.00;;;;;;;;;;4436677;28;20098;-59
2021/07/10 06:38:50;;;;;;;;;;;;;;;;;;4439028;28;20038;-60
2021/07/10 06:41:01;;;;;;;7.72;5.00;;;;;;;;;;4442635;28;20289;-59
2021/07/10 06:43:11;;;;;;;7.50;5.10;;;;;;;;;;4438866;28;20031;-59
2021/07/10 06:45:22;;;;;;;7.60;4.83;;;;;;;;;;4443813;28;20025;-60
2021/07/10 06:47:32;;;;;;;7.32;5.55;;;;;;;;;;4500397;28;20069;-60
2021/07/10 06:49:43;;;;;;;8.87;5.17;;;;;;;;;;4436156;28;20028;-60
2021/07/10 06:51:54;;;;;;;6.83;5.60;;;;;;;;;;4437032;28;20393;-60
2021/07/10 06:54:04;;;;;;;7.72;5.50;;;;;;;;;;4507167;28;20033;-60
2021/07/10 06:56:15;;;;;;;7.87;5.60;;;;;;;;;;4500886;28;20046;-59
2021/07/10 06:58:25;;;;;;;7.47;5.63;;;;;;;;;;4439588;28;20615;-60
2021/07/10 07:00:36;;;;;;;8.83;5.87;;;;;;;;;;4436883;28;20036;-61
2021/07/10 07:02:46;;;;;;;8.10;5.77;;;;;;;;;;4433952;28;20038;-60
2021/07/10 07:04:57;;;;;;;7.03;5.23;;;;;;;;;;4432932;28;20215;-60
2021/07/10 07:07:07;;;;;;;8.87;5.47;;;;;;;;;;4500984;28;20897;-60
2021/07/10 07:09:18;;;;;;;7.73;5.53;;;;;;;;;;4436325;28;20095;-59
2021/07/10 07:11:28;;;;;;;7.87;5.60;;;;;;;;;;4438398;28;20844;-60
2021/07/10 07:13:39;;;;;;;6.63;5.13;;;;;;;;;;4515883;28;20039;-60
2021/07/10 07:15:50;;;;;;;7.18;5.32;;;;;;;;;;4499265;28;20049;-60
2021/07/10 07:18:00;;;;;;;8.07;5.57;;;;;;;;;;4442295;28;20032;-60
2021/07/10 07:20:13;;;;;;;8.83;6.10;;;;;;;;;;4439279;28;20044;-60
2021/07/10 07:22:24;;;;;;;7.50;5.65;;;;;;;;;;4439974;28;20039;-60
2021/07/10 07:24:34;;;;;;;7.73;5.63;;;;;;;;;;4501789;28;20037;-60
2021/07/10 07:26:45;;;;;;;9.10;6.10;;;;;;;;;;4438025;28;20040;-60
2021/07/10 07:28:55;;;;;;;8.37;6.17;;;;;;;;;;4501631;28;20034;-60
2021/07/10 07:31:06;;;;;;;8.80;6.47;;;;;;;;;;4439039;28;20028;-60
2021/07/10 07:33:16;;;;;;;8.37;5.97;;;;;;;;;;4437374;28;20160;-60
2021/07/10 07:35:28;;;;;;;7.60;5.87;;;;;;;;;;4443523;28;20063;-60
2021/07/10 07:37:39;;;;;;;8.38;5.68;;;;;;;;;;4445708;28;20036;-60
2021/07/10 07:39:49;;;;;;;6.82;5.40;;;;;;;;;;4441313;28;20044;-60
2021/07/10 07:42:00;;;;;;;7.87;5.93;;;;;;;;;;4440682;28;20071;-60
2021/07/10 07:44:10;;;;;;;7.40;5.40;;;;;;;;;;4500813;28;20041;-60
2021/07/10 07:46:21;;;;;;;8.60;5.77;;;;;;;;;;4442131;28;20107;-60
2021/07/10 07:48:31;;;;;;;7.67;5.60;;;;;;;;;;4439611;28;20123;-60
2021/07/10 07:50:41;;;;;;;8.03;5.80;;;;;;;;;;4443527;28;20036;-60
2021/07/10 07:52:52;;;;;;;8.77;6.33;;;;;;;;;;4497185;28;20897;-60
2021/07/10 07:55:04;;;;;;;7.67;6.10;;;;;;;;;;4437973;28;20050;-60
2021/07/10 07:57:14;;;;;;;8.23;6.00;;;;;;;;;;4499633;28;20037;-60
2021/07/10 07:59:25;;;;;;;7.83;5.60;;;;;;;;;;4443464;28;20027;-60
2021/07/10 08:01:35;;;;;;;8.27;5.93;;;;;;;;;;4441073;28;20038;-60
2021/07/10 08:03:47;;;;;;;7.93;5.97;;;;;;;;;;4435315;28;20546;-60
2021/07/10 08:05:58;;;;;;;7.75;5.78;;;;;;;;;;4487441;28;20039;-60
2021/07/10 08:08:08;;;;;;;8.30;5.83;;;;;;;;;;4496332;28;20041;-60
2021/07/10 08:10:19;;;;;;;8.50;6.07;;;;;;;;;;4498257;28;20026;-60
2021/07/10 08:12:29;;;;;;;7.13;4.93;;;;;;;;;;4435614;28;20468;-60
2021/07/10 08:14:40;;;;;;;8.77;6.10;;;;;;;;;;4499892;28;20601;-60
2021/07/10 08:16:51;;;;;;;8.73;5.87;;;;;;;;;;4499381;28;20615;-60
2021/07/10 08:19:02;;;;;;;8.68;6.22;;;;;;;;;;4435741;28;20036;-60
2021/07/10 08:21:13;;;;;;;8.95;5.78;;;;;;;;;;4444632;28;20577;-60
2021/07/10 08:23:23;;;;;;;7.90;5.68;;;;;;;;;;4437925;28;20044;-60
2021/07/10 08:25:34;;;;;;;7.57;5.30;;;;;;;;;;4500171;28;20108;-60
2021/07/10 08:27:45;;;;;;;7.67;5.53;;;;;;;;;;4439215;28;20038;-60
2021/07/10 08:29:55;;;;;;;7.18;5.07;;;;;;;;;;4441215;28;20031;-60
2021/07/10 08:32:06;;;;;;;7.37;5.20;;;;;;;;;;4440439;28;20079;-60
2021/07/10 08:34:17;;;;;;;6.90;4.70;;;;;;;;;;4436665;28;20031;-60
2021/07/10 08:36:27;;;;;;;6.90;4.40;;;;;;;;;;4503680;28;20049;-60
2021/07/10 08:38:38;;;;;;;7.13;4.63;;;;;;;;;;4485662;28;20096;-60
2021/07/10 08:40:51;;;;;;;5.13;3.63;;;;;;;;;;4438627;28;20047;-60
2021/07/10 08:43:02;;;;;;;6.13;4.00;;;;;;;;;;4498369;28;20100;-60
2021/07/10 08:45:13;;;;;;;6.35;4.30;;;;;;;;;;4481616;28;20045;-60
2021/07/10 08:47:24;;;;;;;6.13;4.53;;;;;;;;;;4498573;28;20034;-60
2021/07/10 08:49:34;;;;;;;7.60;4.77;;;;;;;;;;4499135;28;20512;-60
2021/07/10 08:51:46;;;;;;;5.00;3.80;;;;;;;;;;4500628;28;20117;-60
2021/07/10 08:53:56;;;;;;;5.70;3.83;;;;;;;;;;4441212;28;21078;-60
2021/07/10 08:56:08;;;;;;;5.60;3.90;;;;;;;;;;4499000;28;20046;-60
2021/07/10 08:58:18;;;;;;;4.75;3.45;;;;;;;;;;4438603;28;20040;-60
2021/07/10 09:00:38;;;;;;;5.00;3.43;;;;;;;;;;4437526;28;20508;-60
2021/07/10 09:02:50;;;;;;;5.07;3.40;;;;;;;;;;4434693;28;20798;-60
2021/07/10 09:05:03;;;;;;;5.18;3.17;;;;;;;;;;4438847;28;20585;-60
2021/07/10 09:07:13;;;;;;;3.50;2.85;;;;;;;;;;4499991;28;20044;-60
2021/07/10 09:09:44;;;;;;;4.50;2.93;;;;;;;;;;4502698;28;20437;-60
2021/07/10 09:12:00;;;;;;;5.03;3.70;;;;;;;;;;4433746;28;20036;-60
2021/07/10 09:14:10;;;;;;;5.68;4.00;;;;;;;;;;4436875;28;20044;-60
2021/07/10 09:16:24;;;;;;;5.23;3.30;;;;;;;;;;4499908;28;20044;-60
2021/07/10 09:18:39;;;;;;;3.85;2.80;;;;;;;;;;4438698;28;20036;-60
2021/07/10 09:20:49;;;;;;;3.53;2.72;;;;;;;;;;4481858;28;20048;-60
2021/07/10 09:23:00;;;;;;;4.13;3.00;;;;;;;;;;4497945;28;20044;-60
2021/07/10 09:25:29;;;;;;;4.00;2.90;;;;;;;;;;4501607;28;20037;-60
2021/07/10 09:27:48;;;;;;;4.53;3.20;;;;;;;;;;4470829;28;20035;-60
2021/07/10 09:29:59;;;;;;;4.10;3.00;;;;;;;;;;4438508;28;20042;-60
2021/07/10 09:32:11;;;;;;;4.80;2.83;;;;;;;;;;4497577;28;20044;-60
2021/07/10 09:34:28;;;;;;;4.38;2.80;;;;;;;;;;4500892;28;20030;-60
2021/07/10 09:36:59;;;;;;;4.03;2.95;;;;;;;;;;4438147;28;20265;-60
2021/07/10 09:39:10;;;;;;;4.43;3.10;;;;;;;;;;4499571;28;20038;-60
2021/07/10 09:41:27;;;;;;;3.57;2.80;;;;;;;;;;4438507;28;20036;-60
2021/07/10 09:43:39;;;;;;;3.70;2.88;;;;;;;;;;4513463;28;20611;-61
2021/07/10 09:45:49;;;;;;;3.67;2.70;;;;;;;;;;4497901;28;20117;-60
2021/07/10 09:48:10;;;;;;;3.60;2.83;;;;;;;;;;4435341;28;20040;-60
2021/07/10 09:50:24;;;;;;;2.80;2.10;;;;;;;;;;4437075;28;20039;-60
2021/07/10 09:52:36;;;;;;;3.90;2.30;;;;;;;;;;4494751;28;20592;-60
2021/07/10 09:54:54;;;;;;;3.63;2.47;;;;;;;;;;4436570;28;21359;-61
2021/07/10 09:57:11;;;;;;;2.90;2.47;;;;;;;;;;4484963;28;20239;-60
2021/07/10 09:59:24;;;;;;;3.58;2.80;;;;;;;;;;4441072;28;20040;-60
2021/07/10 10:01:36;;;;;;;3.92;3.00;;;;;;;;;;4443873;28;20993;-60
2021/07/10 10:03:46;;;;;;;2.65;2.30;;;;;;;;;;4498358;28;20042;-60
2021/07/10 10:05:57;;;;;;;3.63;2.70;;;;;;;;;;4486422;28;20046;-60
2021/07/10 10:08:08;;;;;;;3.10;2.37;;;;;;;;;;4501214;28;20149;-60
2021/07/10 10:10:22;;;;;;;2.38;1.98;;;;;;;;;;4441841;28;20035;-60
2021/07/10 10:12:32;;;;;;;3.10;2.10;;;;;;;;;;4500518;28;20041;-61
2021/07/10 10:14:49;;;;;;;2.50;2.00;;;;;;;;;;4438919;28;20138;-60
2021/07/10 10:17:00;;;;;;;3.25;1.98;;;;;;;;;;4442594;28;20047;-60
2021/07/10 10:19:10;;;;;;;3.50;2.40;;;;;;;;;;4486931;28;20084;-60
2021/07/10 10:21:21;;;;;;;3.33;2.40;;;;;;;;;;4440790;28;20278;-60
2021/07/10 10:23:31;;;;;;;3.43;2.07;;;;;;;;;;4501555;28;20394;-60
2021/07/10 10:25:43;;;;;;;3.33;2.47;;;;;;;;;;4500360;28;20050;-60
2021/07/10 10:27:54;;;;;;;2.80;2.10;;;;;;;;;;4503236;28;20149;-61
2021/07/10 10:30:05;;;;;;;3.17;2.33;;;;;;;;;;4497539;28;20092;-60
2021/07/10 10:32:15;;;;;;;2.92;2.42;;;;;;;;;;4441026;28;20032;-60
2021/07/10 10:34:26;;;;;;;3.30;2.27;;;;;;;;;;4437643;28;20036;-60
2021/07/10 10:36:39;;;;;;;2.78;2.10;;;;;;;;;;4438794;28;20047;-60
2021/07/10 10:38:50;;;;;;;2.60;2.00;;;;;;;;;;4500224;28;20093;-60
2021/07/10 10:41:02;;;;;;;2.50;2.00;;;;;;;;;;4500604;28;20060;-61
2021/07/10 10:43:15;;;;;;;2.05;1.85;;;;;;;;;;4439532;28;20035;-61
2021/07/10 10:45:30;;;;;;;3.45;2.30;;;;;;;;;;4505168;28;21470;-60
2021/07/10 10:47:45;;;;;;;1.98;1.67;;;;;;;;;;4505513;28;20025;-60
2021/07/10 10:49:56;;;;;;;2.78;2.00;;;;;;;;;;4502748;28;20431;-60
2021/07/10 10:52:19;;;;;;;2.67;1.98;;;;;;;;;;4439364;28;20043;-60
2021/07/10 10:54:30;;;;;;;3.97;2.30;;;;;;;;;;4443585;28;20496;-60
2021/07/10 10:56:40;;;;;;;3.20;2.50;;;;;;;;;;4505466;28;20042;-61
2021/07/10 10:58:51;;;;;;;3.43;2.30;;;;;;;;;;4438559;28;20442;-60
2021/07/10 11:01:06;;;;;;;2.40;2.00;;;;;;;;;;4445169;28;20040;-61
2021/07/10 11:03:21;;;;;;;3.08;2.20;;;;;;;;;;4443781;28;20254;-60
2021/07/10 11:05:31;;;;;;;2.90;2.10;;;;;;;;;;4438730;28;20043;-60
2021/07/10 11:07:41;;;;;;;2.20;2.00;;;;;;;;;;4498389;28;21079;-61
2021/07/10 11:10:14;;;;;;;3.57;2.20;;;;;;;;;;4439240;28;20044;-61
2021/07/10 11:12:46;;;;;;;3.40;2.13;;;;;;;;;;4436263;28;20031;-61
2021/07/10 11:15:37;;;;;;;2.85;2.13;;;;;;;;;;4436126;28;20628;-61
2021/07/10 11:17:48;;;;;;;3.05;2.28;;;;;;;;;;4446487;28;20588;-60
2021/07/10 11:19:58;;;;;;;2.70;1.93;;;;;;;;;;4436034;28;20040;-61
2021/07/10 11:22:08;;;;;;;3.07;2.27;;;;;;;;;;4500064;28;20129;-61
2021/07/10 11:24:21;;;;;;;3.17;1.90;;;;;;;;;;4440917;28;20142;-60
2021/07/10 11:26:31;;;;;;;2.70;2.00;;;;;;;;;;4439742;28;20059;-61
2021/07/10 11:28:50;;;;;;;2.43;1.67;;;;;;;;;;4441876;28;20119;-61
2021/07/10 11:31:17;;;;;;;2.08;1.80;;;;;;;;;;4517543;28;20029;-61
2021/07/10 11:34:01;;;;;;;2.95;1.88;;;;;;;;;;4440843;28;20025;-61
2021/07/10 11:36:30;;;;;;;2.60;2.00;;;;;;;;;;4448836;28;20063;-61
2021/07/10 11:38:41;;;;;;;2.53;2.00;;;;;;;;;;4437519;28;20063;-60
2021/07/10 11:40:59;;;;;;;1.93;1.73;;;;;;;;;;4488099;28;20041;-61
2021/07/10 11:43:11;;;;;;;2.13;1.80;;;;;;;;;;4446636;28;20040;-61
2021/07/10 11:45:24;;;;;;;2.15;1.65;;;;;;;;;;4516705;28;20034;-61
2021/07/10 11:47:37;;;;;;;2.78;1.92;;;;;;;;;;4438341;28;20130;-61
2021/07/10 11:49:48;;;;;;;3.80;2.05;;;;;;;;;;4439848;28;20337;-61
2021/07/10 11:51:58;;;;;;;2.77;1.97;;;;;;;;;;4499217;28;20046;-60
2021/07/10 11:54:09;;;;;;;2.50;1.63;;;;;;;;;;4484501;28;20073;-60
2021/07/10 11:56:20;;;;;;;2.57;1.80;;;;;;;;;;4498360;28;20045;-60
2021/07/10 11:58:33;;;;;;;2.28;1.92;;;;;;;;;;4498250;28;20034;-60
2021/07/10 12:00:44;;;;;;;3.70;1.80;;;;;;;;;;4438441;28;20106;-61
2021/07/10 12:02:55;;;;;;;;;;;;;;;;;;4441479;28;20040;-61
2021/07/10 12:05:06;;;;;;;3.93;2.23;;;;;;;;;;4441444;28;19919;-60
2021/07/10 12:07:20;;;;;;;2.53;1.95;;;;;;;;;;4499348;28;20038;-60
2021/07/10 12:09:49;;;;;;;2.10;1.65;;;;;;;;;;4497672;28;20109;-61
2021/07/10 12:12:01;;;;;;;3.13;1.90;;;;;;;;;;4436574;28;20044;-61
2021/07/10 12:14:11;;;;;;;;;;;;;;;;;;4504692;28;20036;-60
2021/07/10 12:16:22;;;;;;;2.00;1.80;;;;;;;;;;4502795;28;20468;-61
2021/07/10 12:18:35;;;;;;;2.60;2.00;;;;;;;;;;4434234;28;20040;-60
2021/07/10 12:20:56;;;;;;;2.60;1.85;;;;;;;;;;4496795;28;20032;-61
2021/07/10 12:23:19;;;;;;;2.25;1.65;;;;;;;;;;4436119;28;20601;-61
2021/07/10 12:25:40;;;;;;;2.25;1.90;;;;;;;;;;4440633;28;20531;-61
2021/07/10 12:27:53;;;;;;;2.33;1.60;;;;;;;;;;4440732;28;20043;-61
2021/07/10 12:30:04;;;;;;;1.70;1.55;;;;;;;;;;4500441;28;20037;-60
2021/07/10 12:32:15;;;;;;;2.22;1.80;;;;;;;;;;4498239;28;20043;-60
2021/07/10 12:34:25;;;;;;;2.67;1.95;;;;;;;;;;4433640;28;20031;-61
2021/07/10 12:36:43;;;;;;;2.30;1.70;;;;;;;;;;4440400;28;20051;-61
2021/07/10 12:39:15;;;;;;;2.38;1.80;;;;;;;;;;4440383;28;20048;-61
2021/07/10 12:41:30;;;;;;;2.40;2.00;;;;;;;;;;4437500;28;21652;-60
2021/07/10 12:43:41;;;;;;;2.65;2.25;;;;;;;;;;4442581;28;20020;-61
2021/07/10 12:45:58;;;;;;;2.10;1.90;;;;;;;;;;4436859;28;20495;-61
2021/07/10 12:48:09;;;;;;;2.38;1.88;;;;;;;;;;4500789;28;20755;-60
2021/07/10 12:50:20;;;;;;;1.93;1.73;;;;;;;;;;4435458;28;20036;-61
2021/07/10 12:52:35;;;;;;;2.50;1.92;;;;;;;;;;4444829;28;21248;-61
2021/07/10 12:55:08;;;;;;;2.70;1.85;;;;;;;;;;4498875;28;20601;-61
2021/07/10 12:57:23;;;;;;;2.60;2.03;;;;;;;;;;4513291;28;20084;-61
2021/07/10 12:59:34;;;;;;;2.97;1.90;;;;;;;;;;4440041;28;20046;-60
2021/07/10 13:01:48;;;;;;;3.05;1.92;;;;;;;;;;4504881;28;20033;-60
2021/07/10 13:03:59;;;;;;;2.65;1.80;;;;;;;;;;4440716;28;20040;-61
2021/07/10 13:06:11;;;;;;;2.40;2.10;;;;;;;;;;4443225;28;20043;-61
2021/07/10 13:08:23;;;;;;;2.03;1.70;;;;;;;;;;4497723;28;20707;-60
2021/07/10 13:10:34;;;;;;;2.55;1.88;;;;;;;;;;4504794;28;20022;-60
2021/07/10 13:12:47;;;;;;;2.17;1.97;;;;;;;;;;4447500;28;20043;-60
2021/07/10 13:15:02;;;;;;;2.60;1.70;;;;;;;;;;4443243;28;20256;-61